Time;durP1;ratioP1;P1;durP2;ratioP2;P2;SDS_P1;SDS_P2;PMS_P1;PMS_P2;Temp;Humidity;BMP_temperature;BMP_pressure;BME280_temperature;BME280_humidity;BME280_pressure;Samples;Min_cycle;Max_cycle;Signal;HPM_P1;HPM_P2
2022/05/22 00:01:26;;;;;;;12.35;5.63;;;11.50;99.90;;;;;;5014006;28;20067;-60
2022/05/22 00:03:52;;;;;;;13.32;5.60;;;11.50;99.90;;;;;;5021102;28;20041;-58
2022/05/22 00:06:18;;;;;;;11.57;5.40;;;11.50;99.90;;;;;;5018796;28;20021;-58
2022/05/22 00:08:43;;;;;;;11.60;5.95;;;11.50;99.90;;;;;;5014910;28;20441;-58
2022/05/22 00:11:09;;;;;;;11.32;5.68;;;11.60;99.90;;;;;;5012013;28;21279;-59
2022/05/22 00:13:34;;;;;;;7.50;5.70;;;11.70;99.90;;;;;;5017257;28;20052;-57
2022/05/22 00:18:44;;;;;;;10.25;5.35;;;11.80;99.90;;;;;;5021579;28;20091;-59
2022/05/22 00:21:09;;;;;;;14.00;5.75;;;11.90;99.90;;;;;;5020694;28;20498;-59
2022/05/22 00:23:35;;;;;;;13.90;5.63;;;11.90;99.90;;;;;;5027638;28;20048;-59
2022/05/22 00:26:00;;;;;;;11.13;5.57;;;11.90;99.90;;;;;;5011643;28;20044;-58
2022/05/22 00:28:26;;;;;;;12.50;6.00;;;11.80;99.90;;;;;;5011218;28;20021;-57
2022/05/22 00:30:52;;;;;;;15.48;5.20;;;11.70;99.90;;;;;;5012098;28;20068;-58
2022/05/22 00:33:17;;;;;;;9.48;5.63;;;11.70;99.90;;;;;;5020406;28;20037;-59
2022/05/22 00:35:43;;;;;;;14.05;6.93;;;11.70;99.90;;;;;;5015254;28;20030;-59
2022/05/22 00:38:08;;;;;;;13.65;5.55;;;11.60;99.90;;;;;;5026155;28;20329;-58
2022/05/22 00:40:35;;;;;;;14.80;6.95;;;11.60;99.90;;;;;;5024237;28;20021;-58
2022/05/22 00:43:01;;;;;;;22.73;6.72;;;11.60;99.90;;;;;;5023989;28;20084;-56
2022/05/22 00:45:27;;;;;;;17.35;7.80;;;11.60;99.90;;;;;;5018861;28;20022;-58
2022/05/22 00:47:53;;;;;;;15.93;6.43;;;11.60;99.90;;;;;;5029435;28;20591;-56
2022/05/22 00:50:21;;;;;;;12.13;5.18;;;11.60;99.90;;;;;;5027960;28;20075;-58
2022/05/22 00:52:54;;;;;;;14.80;6.78;;;11.60;99.90;;;;;;5029396;28;20029;-57
2022/05/22 00:55:30;;;;;;;11.18;5.93;;;11.60;99.90;;;;;;5022485;28;20032;-58
2022/05/22 00:57:58;;;;;;;16.67;6.20;;;11.50;99.90;;;;;;5023942;28;20034;-59
2022/05/22 01:00:28;;;;;;;12.90;6.32;;;11.50;99.90;;;;;;5031510;28;20093;-58
2022/05/22 01:05:45;;;;;;;20.50;7.90;;;11.40;99.90;;;;;;5025442;28;20797;-58
2022/05/22 01:08:11;;;;;;;13.45;6.63;;;11.30;99.90;;;;;;5028585;28;20029;-57
2022/05/22 01:10:45;;;;;;;12.73;6.15;;;11.30;99.90;;;;;;5026468;28;20116;-59
2022/05/22 01:13:17;;;;;;;16.05;7.32;;;11.20;99.90;;;;;;5032325;28;20029;-59
2022/05/22 01:15:43;;;;;;;11.15;6.25;;;11.20;99.90;;;;;;5020230;28;20087;-59
2022/05/22 01:18:09;;;;;;;13.35;7.35;;;11.20;99.90;;;;;;5024869;28;20053;-59
2022/05/22 01:20:35;;;;;;;15.30;7.82;;;11.10;99.90;;;;;;5022717;28;20051;-56
2022/05/22 01:23:01;;;;;;;14.77;6.55;;;11.10;99.90;;;;;;5017620;28;20472;-58
2022/05/22 01:25:26;;;;;;;23.48;7.40;;;11.00;99.90;;;;;;5026056;28;20025;-58
2022/05/22 01:27:53;;;;;;;10.93;6.40;;;10.90;99.90;;;;;;5008950;28;20030;-59
2022/05/22 01:30:26;;;;;;;9.90;6.22;;;10.80;99.90;;;;;;5029692;28;20491;-58
2022/05/22 01:32:52;;;;;;;10.90;6.93;;;10.80;99.90;;;;;;5024655;28;20029;-58
2022/05/22 01:35:21;;;;;;;16.20;6.93;;;10.80;99.90;;;;;;5027483;28;20028;-58
2022/05/22 01:37:48;;;;;;;15.75;7.38;;;10.70;99.90;;;;;;5028843;28;20029;-59
2022/05/22 01:40:15;;;;;;;24.38;8.02;;;10.70;99.90;;;;;;5030329;28;20021;-56
2022/05/22 01:42:41;;;;;;;15.38;7.40;;;10.60;99.90;;;;;;5031753;28;20481;-58
2022/05/22 01:45:08;;;;;;;13.60;6.82;;;10.60;99.90;;;;;;5009531;28;20506;-59
2022/05/22 01:47:38;;;;;;;10.98;6.15;;;10.60;99.90;;;;;;5017687;28;20129;-59
2022/05/22 01:50:05;;;;;;;17.85;7.43;;;10.60;99.90;;;;;;5031226;28;20021;-59
2022/05/22 01:52:31;;;;;;;13.43;6.88;;;10.60;99.90;;;;;;5031413;28;20061;-58
2022/05/22 01:54:56;;;;;;;11.60;6.40;;;10.50;99.90;;;;;;5028223;28;20491;-58
2022/05/22 01:57:22;;;;;;;9.95;6.57;;;10.50;99.90;;;;;;5032799;28;20040;-58
2022/05/22 01:59:48;;;;;;;14.98;7.18;;;10.60;99.90;;;;;;5030559;28;20401;-58
2022/05/22 02:02:13;;;;;;;11.80;6.72;;;10.60;99.90;;;;;;5031292;28;20056;-58
2022/05/22 02:04:39;;;;;;;8.30;6.82;;;10.60;99.90;;;;;;5030749;28;20044;-58
2022/05/22 02:09:49;;;;;;;;;;;10.80;99.90;;;;;;5025842;28;20036;-58
2022/05/22 02:12:14;;;;;;;10.60;6.43;;;10.80;99.90;;;;;;5015343;28;19909;-57
2022/05/22 02:14:40;;;;;;;13.98;7.57;;;10.80;99.90;;;;;;5030214;28;20151;-59
2022/05/22 02:17:06;;;;;;;21.30;9.05;;;10.80;99.90;;;;;;5029101;28;20502;-58
2022/05/22 02:19:32;;;;;;;16.58;8.27;;;10.80;99.90;;;;;;5032443;28;20107;-59
2022/05/22 02:21:57;;;;;;;17.35;7.88;;;10.80;99.90;;;;;;5006044;28;20067;-59
2022/05/22 02:24:23;;;;;;;12.48;7.72;;;10.90;99.90;;;;;;5032336;28;20037;-58
2022/05/22 02:26:48;;;;;;;15.70;6.82;;;10.90;99.90;;;;;;5015148;28;20132;-57
2022/05/22 02:29:15;;;;;;;19.02;6.97;;;10.90;99.90;;;;;;5021670;28;20032;-57
2022/05/22 02:31:40;;;;;;;11.60;7.68;;;10.90;99.90;;;;;;5028040;28;20615;-59
2022/05/22 02:34:06;;;;;;;14.10;6.55;;;10.90;99.90;;;;;;5030720;28;20028;-59
2022/05/22 02:36:31;;;;;;;18.55;7.50;;;11.00;99.90;;;;;;5030505;28;20033;-58
2022/05/22 02:38:57;;;;;;;15.18;6.38;;;11.10;99.90;;;;;;5032374;28;20033;-58
2022/05/22 02:41:25;;;;;;;12.93;6.25;;;11.00;99.90;;;;;;5027747;28;20031;-59
2022/05/22 02:43:51;;;;;;;12.90;6.60;;;11.00;99.90;;;;;;5021674;28;20037;-57
2022/05/22 02:46:18;;;;;;;14.27;7.78;;;11.00;99.90;;;;;;5020744;28;20147;-59
2022/05/22 02:48:43;;;;;;;21.00;7.43;;;10.90;99.90;;;;;;5027890;28;20025;-58
2022/05/22 02:51:11;;;;;;;21.45;7.97;;;10.90;99.90;;;;;;5025425;28;20060;-56
2022/05/22 02:53:37;;;;;;;13.23;7.15;;;10.80;99.90;;;;;;5030729;28;20029;-56
2022/05/22 02:56:07;;;;;;;17.30;7.13;;;10.80;99.90;;;;;;5027476;28;20540;-59
2022/05/22 02:58:33;;;;;;;17.40;7.78;;;10.80;99.90;;;;;;5027127;28;20036;-59
2022/05/22 03:00:58;;;;;;;13.38;7.57;;;10.80;99.90;;;;;;5022181;28;20021;-59
2022/05/22 03:03:24;;;;;;;13.20;7.38;;;10.70;99.90;;;;;;5022301;28;20037;-59
2022/05/22 03:08:33;;;;;;;18.48;8.73;;;10.50;99.90;;;;;;5024281;28;20450;-56
2022/05/22 03:11:03;;;;;;;20.17;8.90;;;10.50;99.90;;;;;;5022294;28;20025;-58
2022/05/22 03:13:29;;;;;;;17.38;7.03;;;10.40;99.90;;;;;;5029398;28;20026;-58
2022/05/22 03:15:54;;;;;;;14.82;8.27;;;10.40;99.90;;;;;;5030547;28;20415;-58
2022/05/22 03:18:20;;;;;;;17.00;8.32;;;10.30;99.90;;;;;;5030679;28;20498;-58
2022/05/22 03:20:46;;;;;;;19.63;8.45;;;10.30;99.90;;;;;;5030691;28;20037;-59
2022/05/22 03:23:12;;;;;;;14.30;8.20;;;10.30;99.90;;;;;;5031375;28;20030;-58
2022/05/22 03:25:38;;;;;;;14.07;8.00;;;10.30;99.90;;;;;;5027722;28;20021;-59
2022/05/22 03:28:04;;;;;;;11.88;8.77;;;10.30;99.90;;;;;;5010195;28;20055;-57
2022/05/22 03:30:30;;;;;;;14.57;8.82;;;10.20;99.90;;;;;;5025368;28;20105;-56
2022/05/22 03:32:55;;;;;;;14.13;8.00;;;10.20;99.90;;;;;;5026247;28;20039;-59
2022/05/22 03:35:21;;;;;;;15.52;8.98;;;10.20;99.90;;;;;;5028064;28;20471;-57
2022/05/22 03:37:46;;;;;;;16.33;8.57;;;10.20;99.90;;;;;;5022116;28;20117;-59
2022/05/22 03:40:13;;;;;;;16.77;8.68;;;10.10;99.90;;;;;;5027351;28;20040;-58
2022/05/22 03:42:39;;;;;;;20.33;9.52;;;10.10;99.90;;;;;;5020368;28;20398;-58
2022/05/22 03:45:06;;;;;;;19.10;9.57;;;10.10;99.90;;;;;;5020763;28;20121;-58
2022/05/22 03:47:31;;;;;;;19.92;8.30;;;10.20;99.90;;;;;;5026595;28;20025;-58
2022/05/22 03:49:57;;;;;;;21.00;9.27;;;10.20;99.90;;;;;;5017597;28;20029;-59
2022/05/22 03:52:23;;;;;;;16.60;8.75;;;10.30;99.90;;;;;;5027931;28;20029;-59
2022/05/22 03:54:48;;;;;;;16.27;8.88;;;10.40;99.90;;;;;;5028365;28;20037;-59
2022/05/22 03:57:14;;;;;;;17.60;9.77;;;10.40;99.90;;;;;;5025072;28;20030;-58
2022/05/22 03:59:41;;;;;;;16.25;8.05;;;10.40;99.90;;;;;;5023857;28;20049;-58
2022/05/22 04:02:06;;;;;;;13.15;8.70;;;10.40;99.90;;;;;;5022227;28;20109;-59
2022/05/22 04:04:32;;;;;;;18.35;9.25;;;10.40;99.90;;;;;;5028661;28;20986;-57
2022/05/22 04:06:57;;;;;;;18.50;9.07;;;10.40;99.90;;;;;;5025074;28;20029;-58
2022/05/22 04:09:26;;;;;;;14.35;7.80;;;10.50;99.90;;;;;;5030475;28;20471;-59
2022/05/22 04:11:51;;;;;;;14.05;7.95;;;10.50;99.90;;;;;;5027791;28;20045;-59
2022/05/22 04:14:18;;;;;;;11.15;7.68;;;10.50;99.90;;;;;;5019599;28;20403;-60
2022/05/22 04:16:44;;;;;;;14.30;7.68;;;10.60;99.90;;;;;;5023561;28;20095;-60
2022/05/22 04:19:10;;;;;;;18.05;8.65;;;10.70;99.90;;;;;;5047320;28;20479;-59
2022/05/22 04:21:36;;;;;;;16.95;8.55;;;10.80;99.90;;;;;;5028982;28;20043;-59
2022/05/22 04:26:45;;;;;;;16.10;7.68;;;10.90;99.90;;;;;;5019550;28;20522;-57
2022/05/22 04:29:12;;;;;;;14.05;7.55;;;11.00;99.90;;;;;;5022240;28;20037;-59
2022/05/22 04:31:37;;;;;;;17.83;7.78;;;11.10;99.90;;;;;;5007877;28;20025;-57
2022/05/22 04:34:03;;;;;;;14.70;8.80;;;11.10;99.90;;;;;;5011210;28;20025;-57
2022/05/22 04:36:29;;;;;;;10.38;7.03;;;11.10;99.90;;;;;;5006799;28;20399;-58
2022/05/22 04:38:55;;;;;;;12.45;7.40;;;11.30;99.90;;;;;;5027028;28;20510;-58
2022/05/22 04:41:21;;;;;;;14.20;6.97;;;11.50;99.90;;;;;;5005324;28;20052;-58
2022/05/22 04:43:46;;;;;;;13.60;7.30;;;11.60;99.90;;;;;;5022763;28;20568;-58
2022/05/22 04:46:12;;;;;;;10.57;6.85;;;11.70;99.90;;;;;;5020411;28;20017;-58
2022/05/22 04:48:38;;;;;;;13.48;7.07;;;11.70;99.90;;;;;;5020041;28;20403;-58
2022/05/22 04:51:04;;;;;;;14.27;6.97;;;11.80;99.90;;;;;;5027810;28;20096;-58
2022/05/22 04:53:30;;;;;;;16.65;7.30;;;11.80;99.90;;;;;;5023598;28;20768;-58
2022/05/22 04:55:56;;;;;;;13.50;6.93;;;11.90;99.90;;;;;;5022709;28;20112;-58
2022/05/22 04:58:22;;;;;;;16.65;7.35;;;12.10;99.90;;;;;;5028616;28;20025;-57
2022/05/22 05:00:48;;;;;;;12.63;5.80;;;12.20;99.90;;;;;;5019469;28;20066;-58
2022/05/22 05:03:14;;;;;;;12.18;6.15;;;12.30;99.90;;;;;;5020857;28;20041;-58
2022/05/22 05:05:40;;;;;;;13.30;6.50;;;12.50;99.90;;;;;;5022517;28;20041;-58
2022/05/22 05:08:06;;;;;;;13.07;6.35;;;12.60;99.90;;;;;;5023719;28;20021;-59
2022/05/22 05:10:32;;;;;;;13.60;5.95;;;12.80;99.90;;;;;;5025391;28;20168;-58
2022/05/22 05:12:57;;;;;;;10.55;5.75;;;13.20;99.90;;;;;;5019436;28;20044;-58
2022/05/22 05:15:24;;;;;;;12.35;7.25;;;13.30;99.90;;;;;;5021251;28;20034;-58
2022/05/22 05:17:50;;;;;;;12.15;5.97;;;13.40;99.90;;;;;;5028959;28;20036;-58
2022/05/22 05:20:18;;;;;;;10.30;6.38;;;13.70;99.90;;;;;;5029486;28;20025;-60
2022/05/22 05:22:44;;;;;;;13.30;5.80;;;14.70;99.90;;;;;;5028959;28;20061;-59
2022/05/22 05:25:12;;;;;;;10.60;5.57;;;15.10;99.90;;;;;;5022785;28;20045;-59
2022/05/22 05:27:37;;;;;;;13.52;5.55;;;15.10;99.90;;;;;;5008247;28;20104;-61
2022/05/22 05:30:04;;;;;;;13.20;5.85;;;14.90;99.90;;;;;;5014220;28;20479;-58
2022/05/22 05:32:29;;;;;;;12.05;5.85;;;14.80;99.90;;;;;;5018414;28;20022;-60
2022/05/22 05:35:02;;;;;;;11.55;5.28;;;14.90;99.90;;;;;;5022454;28;20075;-58
2022/05/22 05:37:28;;;;;;;11.23;4.80;;;16.30;99.90;;;;;;5027170;28;20033;-59
2022/05/22 05:39:54;;;;;;;9.13;4.22;;;17.80;99.90;;;;;;5031419;28;20467;-59
2022/05/22 05:42:21;;;;;;;9.65;4.53;;;18.70;99.80;;;;;;5030538;28;20033;-59
2022/05/22 05:44:47;;;;;;;6.40;3.22;;;20.20;94.90;;;;;;5030937;28;20064;-60
2022/05/22 05:47:13;;;;;;;6.38;3.25;;;21.40;92.50;;;;;;5023401;28;20057;-60
2022/05/22 05:49:39;;;;;;;10.35;4.45;;;21.40;91.00;;;;;;5026833;28;20108;-60
2022/05/22 05:52:05;;;;;;;6.30;3.17;;;22.30;89.00;;;;;;5023332;28;20099;-60
2022/05/22 05:54:31;;;;;;;8.70;3.70;;;23.30;82.80;;;;;;5021809;28;20451;-59
2022/05/22 05:56:58;;;;;;;6.38;3.92;;;23.80;79.40;;;;;;5023395;28;20029;-59
2022/05/22 05:59:24;;;;;;;8.10;3.50;;;23.50;80.10;;;;;;5020838;28;20022;-59
2022/05/22 06:01:49;;;;;;;6.25;3.35;;;23.90;76.80;;;;;;5027341;28;20034;-60
2022/05/22 06:04:15;;;;;;;8.95;3.45;;;23.30;77.60;;;;;;5029020;28;20039;-59
2022/05/22 06:06:40;;;;;;;6.55;3.67;;;22.90;81.50;;;;;;5024872;28;20105;-60
2022/05/22 06:09:06;;;;;;;6.57;3.67;;;22.70;80.00;;;;;;5024606;28;20041;-60
2022/05/22 06:11:32;;;;;;;7.55;3.25;;;23.10;78.90;;;;;;5020653;28;20035;-60
2022/05/22 06:13:58;;;;;;;10.93;4.38;;;22.40;81.10;;;;;;5029654;28;20561;-60
2022/05/22 06:16:24;;;;;;;6.40;3.50;;;22.90;78.50;;;;;;5028216;28;20112;-59
2022/05/22 06:18:49;;;;;;;6.30;3.55;;;22.90;80.80;;;;;;5029942;28;20033;-60
2022/05/22 06:21:18;;;;;;;8.15;3.83;;;22.50;82.30;;;;;;5028213;28;20037;-60
2022/05/22 06:23:44;;;;;;;6.55;3.50;;;22.70;80.40;;;;;;5027053;28;20033;-59
2022/05/22 06:26:13;;;;;;;6.95;3.60;;;23.40;79.10;;;;;;5028353;28;20067;-60
2022/05/22 06:28:38;;;;;;;5.18;3.45;;;23.30;79.60;;;;;;5005258;28;20042;-61
2022/05/22 06:31:06;;;;;;;7.95;3.60;;;23.70;77.70;;;;;;5026956;28;20032;-60
2022/05/22 06:33:32;;;;;;;6.80;2.95;;;24.30;74.40;;;;;;5022285;28;20021;-60
2022/05/22 06:35:57;;;;;;;9.85;3.08;;;25.20;73.70;;;;;;5026803;28;20026;-60
2022/05/22 06:41:10;;;;;;;6.97;3.10;;;26.70;70.10;;;;;;5030253;28;20079;-60
2022/05/22 06:43:35;;;;;;;7.22;3.17;;;28.10;67.60;;;;;;5023793;28;20126;-60
2022/05/22 06:46:02;;;;;;;10.18;3.13;;;27.50;64.90;;;;;;5022735;28;20065;-60
2022/05/22 06:48:28;;;;;;;7.18;2.60;;;26.70;64.80;;;;;;5020355;28;20095;-61
2022/05/22 06:50:54;;;;;;;4.03;2.55;;;26.50;65.70;;;;;;5028599;28;20096;-60
2022/05/22 06:53:20;;;;;;;6.15;2.78;;;27.20;65.20;;;;;;5023346;28;20088;-60
2022/05/22 06:55:46;;;;;;;6.38;2.83;;;26.80;63.30;;;;;;5030177;28;20033;-61
2022/05/22 06:58:12;;;;;;;6.75;2.85;;;27.10;65.30;;;;;;5023417;28;20384;-58
2022/05/22 07:00:37;;;;;;;6.72;2.78;;;27.20;62.30;;;;;;5014969;28;20033;-58
2022/05/22 07:03:03;;;;;;;6.97;3.13;;;27.20;62.60;;;;;;5026226;28;20045;-51
2022/05/22 07:05:29;;;;;;;6.32;2.70;;;28.20;63.20;;;;;;5024359;28;20022;-61
2022/05/22 07:07:54;;;;;;;7.50;2.83;;;28.70;60.10;;;;;;5033643;28;20059;-58
2022/05/22 07:11:38;;;;;;;8.55;2.95;;;27.60;60.50;;;;;;5026098;28;20056;-61
2022/05/22 07:13:06;;;;;;;7.50;2.83;;;27.90;61.40;;;;;;5031184;28;20025;-60
2022/05/22 07:15:31;;;;;;;10.70;2.60;;;27.90;61.10;;;;;;5021850;28;20040;-60
2022/05/22 07:17:57;;;;;;;6.00;2.22;;;28.60;59.90;;;;;;5020719;28;20030;-61
2022/05/22 07:20:22;;;;;;;5.72;2.20;;;29.20;59.20;;;;;;5025861;28;20029;-61
2022/05/22 07:22:48;;;;;;;6.60;2.63;;;29.90;57.20;;;;;;5016833;28;20065;-59
2022/05/22 07:25:13;;;;;;;6.13;2.75;;;29.50;58.80;;;;;;5030700;28;20024;-61
2022/05/22 07:27:41;;;;;;;6.55;2.75;;;29.40;56.30;;;;;;5005939;28;20052;-61
2022/05/22 07:30:07;;;;;;;6.45;2.33;;;28.50;59.20;;;;;;5021603;28;20402;-61
2022/05/22 07:32:33;;;;;;;6.18;2.45;;;29.40;58.80;;;;;;5030206;28;20033;-61
2022/05/22 07:34:59;;;;;;;6.95;2.20;;;29.90;56.30;;;;;;5022962;28;20050;-61
2022/05/22 07:37:25;;;;;;;9.05;2.53;;;29.60;57.60;;;;;;5025858;28;20025;-61
2022/05/22 07:39:51;;;;;;;8.90;2.63;;;29.80;55.60;;;;;;5022547;28;20237;-61
2022/05/22 07:42:16;;;;;;;6.07;2.20;;;29.80;55.90;;;;;;5024050;28;20038;-58
2022/05/22 07:44:42;;;;;;;10.23;2.85;;;29.50;56.70;;;;;;5028930;28;20030;-60
2022/05/22 07:47:07;;;;;;;7.50;2.58;;;29.30;57.80;;;;;;5024288;28;20096;-60
2022/05/22 07:52:17;;;;;;;10.40;2.70;;;28.90;56.10;;;;;;5027633;28;20048;-61
2022/05/22 07:54:43;;;;;;;10.38;2.88;;;28.60;54.50;;;;;;5027296;28;20471;-57
2022/05/22 07:57:08;;;;;;;8.38;2.88;;;28.80;55.40;;;;;;5032358;28;20037;-58
2022/05/22 07:59:36;;;;;;;7.88;2.95;;;28.90;54.50;;;;;;5034874;28;20018;-58
2022/05/22 08:02:02;;;;;;;6.93;2.42;;;28.80;54.60;;;;;;5020318;28;20026;-60
2022/05/22 08:04:28;;;;;;;6.28;2.53;;;29.00;57.40;;;;;;5024677;28;20028;-60
2022/05/22 08:06:54;;;;;;;8.25;2.45;;;30.10;55.10;;;;;;5025747;28;20107;-61
2022/05/22 08:09:19;;;;;;;7.03;2.40;;;31.30;53.40;;;;;;5025822;28;20384;-61
2022/05/22 08:11:45;;;;;;;4.93;1.92;;;31.50;53.00;;;;;;5029852;28;20090;-61
2022/05/22 08:14:11;;;;;;;5.65;2.22;;;31.30;52.10;;;;;;5031417;28;20037;-60
2022/05/22 08:16:37;;;;;;;5.72;2.47;;;31.40;51.10;;;;;;5026754;28;20033;-59
2022/05/22 08:19:03;;;;;;;7.13;2.60;;;31.50;51.30;;;;;;5014649;28;20064;-59
2022/05/22 08:21:29;;;;;;;6.95;2.72;;;32.00;50.70;;;;;;5022160;28;20096;-61
2022/05/22 08:23:54;;;;;;;8.95;3.55;;;32.50;49.80;;;;;;5029533;28;20033;-60
2022/05/22 08:26:20;;;;;;;4.65;1.85;;;32.10;49.30;;;;;;5020223;28;20549;-60
2022/05/22 08:28:46;;;;;;;7.18;2.28;;;30.80;51.90;;;;;;5000298;28;20038;-60
2022/05/22 08:31:11;;;;;;;7.60;2.30;;;31.00;52.60;;;;;;5018005;28;20493;-60
2022/05/22 08:33:37;;;;;;;7.60;2.72;;;31.00;51.50;;;;;;5021355;28;20406;-61
2022/05/22 08:36:03;;;;;;;7.35;2.38;;;30.70;51.00;;;;;;5027864;28;20037;-59
2022/05/22 08:38:29;;;;;;;7.65;2.75;;;29.80;50.20;;;;;;5012419;28;20484;-61
2022/05/22 08:41:20;;;;;;;8.52;2.38;;;28.80;53.10;;;;;;5026489;28;20028;-61
2022/05/22 08:43:46;;;;;;;9.38;2.85;;;28.40;53.00;;;;;;5018237;28;20034;-61
2022/05/22 08:46:22;;;;;;;5.03;2.50;;;28.60;55.40;;;;;;5021721;28;20021;-60
2022/05/22 08:48:56;;;;;;;7.57;1.83;;;29.00;53.20;;;;;;5025540;28;20029;-60
2022/05/22 08:51:34;;;;;;;6.38;1.80;;;28.70;54.10;;;;;;5028217;28;20380;-60
2022/05/22 08:54:28;;;;;;;7.72;2.40;;;28.60;54.10;;;;;;5021169;28;20068;-60
2022/05/22 08:59:45;;;;;;;8.57;2.67;;;28.40;53.20;;;;;;5024420;28;20463;-60
2022/05/22 09:02:16;;;;;;;5.33;1.87;;;28.40;51.90;;;;;;5024910;28;20108;-59
2022/05/22 09:05:08;;;;;;;7.25;2.60;;;28.30;52.70;;;;;;5020143;28;20105;-61
2022/05/22 09:08:11;;;;;;;7.70;2.33;;;29.20;51.90;;;;;;5022368;28;20096;-60
2022/05/22 09:10:44;;;;;;;6.25;2.10;;;30.10;51.10;;;;;;4996098;28;20112;-58
2022/05/22 09:13:35;;;;;;;7.75;1.90;;;30.10;49.30;;;;;;5028609;28;20041;-58
2022/05/22 09:16:28;;;;;;;7.05;2.28;;;30.60;50.50;;;;;;5019590;28;20430;-57
2022/05/22 09:19:36;;;;;;;6.38;2.47;;;30.20;49.70;;;;;;5027570;28;20140;-59
2022/05/22 09:22:23;;;;;;;5.72;2.33;;;29.60;51.40;;;;;;4951646;28;20124;-59
2022/05/22 09:25:28;;;;;;;5.32;1.98;;;30.00;50.00;;;;;;5029088;28;20060;-58
2022/05/22 09:28:08;;;;;;;6.15;2.30;;;30.60;49.30;;;;;;5011966;28;20044;-59
2022/05/22 09:31:00;;;;;;;7.00;2.20;;;30.60;48.80;;;;;;5024500;28;20030;-59
2022/05/22 09:33:37;;;;;;;5.47;2.45;;;30.70;48.60;;;;;;5020792;28;20494;-59
2022/05/22 09:36:21;;;;;;;7.47;2.22;;;30.60;51.30;;;;;;5018181;28;20044;-59
2022/05/22 09:39:12;;;;;;;7.57;2.65;;;31.30;48.90;;;;;;5025337;28;20368;-59
2022/05/22 09:42:20;;;;;;;6.22;2.30;;;30.40;49.50;;;;;;4991867;28;20055;-59
2022/05/22 09:45:10;;;;;;;11.02;2.97;;;30.20;49.90;;;;;;4999861;28;20187;-59
2022/05/22 09:47:56;;;;;;;5.72;2.15;;;30.20;49.70;;;;;;5023660;28;20563;-59
2022/05/22 09:50:34;;;;;;;7.25;1.92;;;30.60;48.40;;;;;;5030947;28;20029;-58
2022/05/22 09:53:07;;;;;;;9.43;2.83;;;30.60;48.60;;;;;;5007294;28;20026;-59
2022/05/22 09:55:51;;;;;;;9.90;2.58;;;30.50;49.40;;;;;;5006561;28;20048;-59
2022/05/22 09:58:40;;;;;;;7.20;2.15;;;29.90;50.50;;;;;;5021854;28;20072;-59
2022/05/22 10:01:23;;;;;;;5.53;2.17;;;29.90;49.10;;;;;;5022979;28;20379;-57
2022/05/22 10:03:59;;;;;;;7.22;2.35;;;29.70;49.30;;;;;;5014520;28;20036;-61
2022/05/22 10:06:38;;;;;;;5.68;2.13;;;29.00;52.90;;;;;;5027863;28;20374;-60
2022/05/22 10:09:09;;;;;;;5.65;1.70;;;29.10;50.30;;;;;;5024609;28;20087;-57
2022/05/22 10:12:18;;;;;;;6.03;2.38;;;29.10;50.30;;;;;;5027738;28;20039;-60
2022/05/22 10:14:56;;;;;;;5.05;2.13;;;28.70;49.80;;;;;;5013309;28;20040;-60
2022/05/22 10:17:39;;;;;;;9.65;2.60;;;27.70;53.20;;;;;;5019959;28;20069;-59
2022/05/22 10:20:24;;;;;;;9.27;2.38;;;27.30;53.70;;;;;;5024848;28;20587;-60
2022/05/22 10:23:05;;;;;;;7.53;2.35;;;27.10;54.10;;;;;;5024261;28;20555;-60
2022/05/22 10:26:05;;;;;;;4.72;1.80;;;27.10;54.90;;;;;;5029292;28;20081;-59
2022/05/22 10:28:37;;;;;;;8.77;2.25;;;27.10;53.30;;;;;;4953876;28;20060;-60
2022/05/22 10:31:26;;;;;;;6.47;1.93;;;26.90;52.50;;;;;;5017311;28;21813;-58
2022/05/22 10:34:08;;;;;;;5.35;1.70;;;26.80;51.80;;;;;;5028027;28;20288;-61
2022/05/22 10:36:41;;;;;;;5.97;1.70;;;27.00;52.00;;;;;;5023329;28;20049;-60
2022/05/22 10:39:07;;;;;;;7.20;1.70;;;27.20;51.40;;;;;;5028580;28;20797;-59
2022/05/22 10:44:46;;;;;;;8.40;2.40;;;26.60;54.00;;;;;;5019143;28;20040;-61
2022/05/22 10:47:12;;;;;;;9.50;2.33;;;26.60;53.50;;;;;;5028023;28;20026;-60
2022/05/22 10:49:43;;;;;;;5.03;1.90;;;25.90;53.60;;;;;;5022706;28;20087;-59
2022/05/22 10:52:13;;;;;;;6.95;2.00;;;25.90;54.10;;;;;;5021959;28;20504;-59
2022/05/22 10:54:50;;;;;;;8.38;2.53;;;25.90;55.90;;;;;;5022789;28;20037;-60
2022/05/22 10:57:19;;;;;;;5.47;2.65;;;25.50;54.30;;;;;;5020318;28;20053;-59
2022/05/22 10:59:46;;;;;;;7.40;2.30;;;25.10;55.80;;;;;;5025315;28;20033;-59
2022/05/22 11:02:26;;;;;;;6.97;2.42;;;24.90;53.90;;;;;;5028092;28;20467;-59
2022/05/22 11:04:54;;;;;;;6.63;2.83;;;25.00;55.90;;;;;;5025896;28;20030;-60
2022/05/22 11:07:31;;;;;;;7.95;2.92;;;25.40;56.00;;;;;;5027202;28;20037;-59
2022/05/22 11:10:17;;;;;;;12.45;5.97;;;25.00;55.90;;;;;;5026523;28;20026;-58
2022/05/22 11:12:43;;;;;;;8.05;3.58;;;25.30;56.10;;;;;;5021398;28;20438;-59
2022/05/22 11:15:24;;;;;;;8.10;2.35;;;25.00;55.40;;;;;;5020304;28;20321;-60
2022/05/22 11:18:10;;;;;;;9.82;1.98;;;25.00;55.90;;;;;;5026517;28;20506;-60
2022/05/22 11:21:13;;;;;;;6.57;2.10;;;25.30;53.30;;;;;;5019853;28;20076;-60
2022/05/22 11:23:56;;;;;;;4.65;2.42;;;25.30;55.20;;;;;;4998821;28;20042;-59
2022/05/22 11:26:43;;;;;;;7.38;3.67;;;25.00;54.00;;;;;;5025244;28;20029;-60
2022/05/22 11:29:20;;;;;;;7.28;3.00;;;24.80;55.80;;;;;;5008998;28;20045;-58
2022/05/22 11:32:13;;;;;;;5.45;1.77;;;24.60;56.80;;;;;;5016301;28;20083;-60
2022/05/22 11:35:06;;;;;;;6.15;2.00;;;24.50;55.90;;;;;;5022721;28;20049;-60
2022/05/22 11:37:58;;;;;;;7.95;2.40;;;25.00;58.30;;;;;;5020254;28;20100;-60
2022/05/22 11:41:15;;;;;;;7.03;2.28;;;25.00;54.70;;;;;;5016247;28;20037;-59
2022/05/22 11:44:13;;;;;;;5.63;2.10;;;25.00;53.70;;;;;;4948609;28;20086;-59
2022/05/22 11:46:47;;;;;;;4.82;2.25;;;24.70;55.20;;;;;;5014132;28;20046;-59
2022/05/22 11:49:19;;;;;;;10.30;2.22;;;24.50;55.70;;;;;;5033578;28;20029;-60
2022/05/22 11:52:11;;;;;;;9.75;2.60;;;24.50;55.20;;;;;;5032080;28;20041;-60
2022/05/22 11:54:51;;;;;;;6.88;2.25;;;24.30;55.20;;;;;;5028099;28;20034;-60
2022/05/22 11:57:31;;;;;;;10.05;2.55;;;24.00;56.50;;;;;;5029424;28;20025;-59
2022/05/22 12:00:43;;;;;;;6.60;2.28;;;23.80;57.30;;;;;;5030356;28;20056;-59
2022/05/22 12:03:41;;;;;;;5.50;1.95;;;23.70;56.50;;;;;;5003070;28;20033;-59
2022/05/22 12:06:15;;;;;;;6.07;2.38;;;23.50;56.40;;;;;;5028309;28;20484;-60
2022/05/22 12:09:05;;;;;;;9.25;2.10;;;23.30;57.30;;;;;;5030729;28;20494;-60
2022/05/22 12:11:54;;;;;;;7.20;2.15;;;23.30;58.10;;;;;;5021591;28;20033;-60
2022/05/22 12:14:32;;;;;;;4.30;1.90;;;23.50;57.80;;;;;;5025080;28;20032;-59
2022/05/22 12:17:17;;;;;;;11.93;2.08;;;23.50;59.00;;;;;;5016787;28;20033;-60
2022/05/22 12:19:59;;;;;;;9.38;2.60;;;23.70;58.00;;;;;;5019999;28;20028;-60
2022/05/22 12:23:07;;;;;;;6.60;2.00;;;23.90;57.60;;;;;;5018522;28;20033;-60
2022/05/22 12:25:19;;;;;;;4.03;2.17;;;23.90;57.20;;;;;;5019737;28;20541;-60
2022/05/22 12:27:45;;;;;;;8.98;2.22;;;24.10;59.30;;;;;;5030133;28;20029;-60
2022/05/22 12:30:23;;;;;;;3.67;1.70;;;24.30;56.70;;;;;;5012594;28;20065;-60
2022/05/22 12:32:59;;;;;;;9.30;2.25;;;24.50;56.70;;;;;;5025375;28;20036;-59
2022/05/22 12:35:26;;;;;;;7.70;2.33;;;24.60;57.40;;;;;;5026956;28;20018;-60
2022/05/22 12:37:56;;;;;;;4.25;1.98;;;24.20;55.00;;;;;;5010362;28;20412;-59
2022/05/22 12:40:41;;;;;;;3.47;2.30;;;24.10;55.60;;;;;;5027379;28;20108;-59
2022/05/22 12:43:10;;;;;;;4.35;2.30;;;23.50;57.10;;;;;;5029016;28;20028;-55
2022/05/22 12:45:38;;;;;;;7.30;2.10;;;23.20;58.10;;;;;;5030121;28;20117;-59
2022/05/22 12:48:24;;;;;;;6.68;2.13;;;23.30;57.80;;;;;;5034012;28;20029;-58
2022/05/22 12:50:54;;;;;;;4.93;2.17;;;23.50;59.10;;;;;;5031416;28;20498;-60
2022/05/22 12:53:29;;;;;;;4.32;1.90;;;23.30;57.90;;;;;;5032112;28;20030;-59
2022/05/22 12:55:56;;;;;;;6.70;2.38;;;23.50;59.30;;;;;;5032112;28;20441;-60
2022/05/22 12:58:37;;;;;;;5.07;2.08;;;23.60;56.40;;;;;;5031261;28;20418;-59
2022/05/22 13:01:22;;;;;;;6.25;2.30;;;23.60;57.70;;;;;;5029033;28;20029;-60
2022/05/22 13:03:54;;;;;;;5.00;2.50;;;23.20;56.70;;;;;;5036923;28;20017;-60
2022/05/22 13:06:22;;;;;;;9.48;2.67;;;23.30;57.30;;;;;;5023665;28;20029;-60
2022/05/22 13:09:00;;;;;;;6.20;2.58;;;23.10;58.20;;;;;;5024619;28;20064;-60
2022/05/22 13:11:42;;;;;;;6.43;2.05;;;23.20;58.10;;;;;;5031733;28;20056;-58
2022/05/22 13:14:52;;;;;;;9.38;2.03;;;23.30;58.30;;;;;;5032780;28;20502;-59
2022/05/22 13:17:50;;;;;;;5.07;2.13;;;23.30;58.50;;;;;;5015513;28;20506;-60
2022/05/22 13:20:48;;;;;;;5.63;2.55;;;23.30;59.90;;;;;;5032951;28;20040;-60
2022/05/22 13:23:23;;;;;;;6.80;1.75;;;23.30;58.80;;;;;;5032473;28;20126;-59
2022/05/22 13:26:24;;;;;;;6.72;2.20;;;23.40;58.30;;;;;;5030944;28;20029;-59
2022/05/22 13:29:14;;;;;;;7.63;1.95;;;23.50;56.50;;;;;;5032610;28;20104;-60
2022/05/22 13:31:53;;;;;;;4.28;1.90;;;23.50;57.20;;;;;;5025294;28;20042;-60